Great Falls International Airport
KGTF : now visible

Airfield :











YOU CAN JOIN US ON...

 
LOGIN :

Register | Disclaimer

   EN    FR    IT 

 









Legend :    VFR   Marginal VFR   IFR   Intensive IFR   Very Intensive IFR
Visi :
Ceiling :
>= 8 km
>= 3000ft
5 to 8 km
1000 to 3000 ft
1500m to 5 km
500 to 1000 ft
800 to 1500m
200 to 500 ft
< 800m
< 200 ft
Symbols :   Thunderstorms  Fog  Heavy snow  Heavy precipitations  Wind > 20 kt






- Airport Elevation : 3680 ft
- IATA code : GTF


KGTF - Great Falls International

CURRENT METAR :
  • 192053Z 00000KT 10SM CLR M02/M04 A2982 RMK AO2 SLP147 T10171044 58022

EXPIRED METARs :
  • 191953Z 16003KT 10SM CLR M04/M06 A2985 RMK AO2 SLP163 T10391061
  • 191853Z 14005KT 9SM SCT005 M04/M06 A2989 RMK AO2 SLP177 T10441061

TAF KGTF
Valid from the 19 at 18:00 until the 20 at 18:00 UTC


191740Z 1918/2018 01004KT P6SM SCT006 OVC090 WS020/25035KT
FM200000 22010KT P6SM BKN040 WS020/25035KT
FM200200 23010KT P6SM VCSH OVC027
FM200900 29007KT P6SM BKN018
PROB30 2009/2014 4SM -RASN BR OVC008
KZLC FIR / North America



MET'MAP, your aeronautical weather chart ! - Copyright ORBIFLY December 2007 - Disclaimer

ORBIFLY MET'MAP TEAM :

Programming & Development : Alexandra Zaïnal
Concept & original design : Baudouin d'Aumeries
Assistance for programming : Marc-Olivier Méhu
Technical & hardware support : Manuel Goepfert

Contact : metmap@orbifly.com




SOURCES & CREDITS :

   NOAA       Earth
Advisory